Time;durP1;ratioP1;P1;durP2;ratioP2;P2;SDS_P1;SDS_P2;PMS_P1;PMS_P2;Temp;Humidity;BMP_temperature;BMP_pressure;BME280_temperature;BME280_humidity;BME280_pressure;Samples;Min_cycle;Max_cycle;Signal;HPM_P1;HPM_P2
2022/11/02 00:00:43;;;;;;;25.57;24.00;;;9.50;99.90;;;;;;4954049;28;20445;-72
2022/11/02 00:03:10;;;;;;;25.83;24.13;;;9.50;99.90;;;;;;4953771;28;20584;-71
2022/11/02 00:05:37;;;;;;;27.07;25.30;;;9.40;99.90;;;;;;4953542;28;20459;-71
2022/11/02 00:08:04;;;;;;;27.10;25.00;;;9.40;99.90;;;;;;4953537;28;20463;-71
2022/11/02 00:10:31;;;;;;;26.27;24.37;;;9.40;99.90;;;;;;4953683;28;20455;-71
2022/11/02 00:12:58;;;;;;;27.57;25.00;;;9.40;99.90;;;;;;4953719;28;20550;-71
2022/11/02 00:15:27;;;;;;;26.33;24.40;;;9.40;99.90;;;;;;4953835;28;20455;-72
2022/11/02 00:17:59;;;;;;;26.60;24.80;;;9.40;99.90;;;;;;4953814;28;20974;-74
2022/11/02 00:20:26;;;;;;;25.80;23.90;;;9.30;99.90;;;;;;4953937;28;20448;-71
2022/11/02 00:22:57;;;;;;;28.27;26.07;;;9.30;99.90;;;;;;4953340;28;20456;-71
2022/11/02 00:25:26;;;;;;;27.07;25.10;;;9.20;99.90;;;;;;4953581;28;20456;-72
2022/11/02 00:27:53;;;;;;;27.57;25.73;;;9.20;99.90;;;;;;4953348;28;20459;-72
2022/11/02 00:30:19;;;;;;;28.17;25.37;;;9.20;99.90;;;;;;4953199;28;20457;-73
2022/11/02 00:32:46;;;;;;;25.70;24.00;;;9.20;99.90;;;;;;4953010;28;20478;-73
2022/11/02 00:35:15;;;;;;;26.00;23.87;;;9.20;99.90;;;;;;4953456;28;20543;-74
2022/11/02 00:37:41;;;;;;;27.27;25.27;;;9.20;99.90;;;;;;4953529;28;20800;-72
2022/11/02 00:40:09;;;;;;;27.57;25.30;;;9.20;99.90;;;;;;4953002;28;20463;-72
2022/11/02 00:42:36;;;;;;;26.53;24.23;;;9.20;99.90;;;;;;4952639;28;20444;-72
2022/11/02 00:45:03;;;;;;;27.53;25.53;;;9.20;99.90;;;;;;4952716;28;20829;-71
2022/11/02 00:47:30;;;;;;;27.47;25.20;;;9.20;99.90;;;;;;4952768;28;20535;-71
2022/11/02 00:49:57;;;;;;;26.40;24.27;;;9.30;99.90;;;;;;4953113;28;20939;-71
2022/11/02 00:52:25;;;;;;;28.07;25.83;;;9.20;99.90;;;;;;4952477;28;20460;-71
2022/11/02 00:54:52;;;;;;;28.43;26.10;;;9.20;99.90;;;;;;4952098;28;21020;-71
2022/11/02 00:57:18;;;;;;;28.73;26.70;;;9.20;99.90;;;;;;4952615;28;20801;-72
2022/11/02 00:59:45;;;;;;;28.37;26.50;;;9.20;99.90;;;;;;4952733;28;20463;-71
2022/11/02 01:02:12;;;;;;;27.47;25.33;;;9.20;99.90;;;;;;4952997;28;20459;-71
2022/11/02 01:04:39;;;;;;;27.23;24.97;;;9.10;99.90;;;;;;4952785;28;20972;-71
2022/11/02 01:07:06;;;;;;;27.07;25.33;;;9.10;99.90;;;;;;4952865;28;20905;-71
2022/11/02 01:09:34;;;;;;;27.90;25.83;;;9.10;99.90;;;;;;4952768;28;20445;-71
2022/11/02 01:12:00;;;;;;;28.20;25.83;;;9.10;99.90;;;;;;4952840;28;20477;-72
2022/11/02 01:14:27;;;;;;;26.70;24.70;;;9.00;99.90;;;;;;4952861;28;20484;-72
2022/11/02 01:16:56;;;;;;;28.50;26.43;;;9.00;99.90;;;;;;4952510;28;20942;-74
2022/11/02 01:19:23;;;;;;;27.67;25.67;;;9.00;99.90;;;;;;4952651;28;20464;-73
2022/11/02 01:21:50;;;;;;;27.57;25.60;;;9.00;99.90;;;;;;4952575;28;20463;-74
2022/11/02 01:24:16;;;;;;;26.27;24.77;;;9.00;99.90;;;;;;4952446;28;20445;-73
2022/11/02 01:26:45;;;;;;;26.90;25.00;;;9.00;99.90;;;;;;4952538;28;20449;-72
2022/11/02 01:29:11;;;;;;;26.93;24.83;;;8.90;99.90;;;;;;4952799;28;20771;-73
2022/11/02 01:31:38;;;;;;;26.10;24.20;;;8.90;99.90;;;;;;4952353;28;20456;-73
2022/11/02 01:34:05;;;;;;;26.13;24.40;;;8.90;99.90;;;;;;4952163;28;20484;-74
2022/11/02 01:36:31;;;;;;;26.70;24.43;;;8.90;99.90;;;;;;4952171;28;20579;-73
2022/11/02 01:38:58;;;;;;;26.67;24.80;;;9.00;99.90;;;;;;4952503;28;20455;-74
2022/11/02 01:41:25;;;;;;;29.63;27.33;;;8.90;99.90;;;;;;4952205;28;20444;-73
2022/11/02 01:43:55;;;;;;;26.80;24.80;;;8.90;99.90;;;;;;4952077;28;20465;-73
2022/11/02 01:46:24;;;;;;;25.53;23.73;;;8.90;99.90;;;;;;4951830;28;20480;-74
2022/11/02 01:48:56;;;;;;;27.07;25.23;;;8.90;99.90;;;;;;4952646;28;20484;-73
2022/11/02 01:51:26;;;;;;;26.93;25.10;;;8.90;99.90;;;;;;4952751;28;20552;-73
2022/11/02 01:53:57;;;;;;;27.27;25.23;;;8.90;99.90;;;;;;4952193;28;20861;-73
2022/11/02 01:56:28;;;;;;;28.57;26.43;;;9.00;99.90;;;;;;4951973;28;20460;-73
2022/11/02 01:59:00;;;;;;;27.10;25.20;;;9.10;99.90;;;;;;4952105;28;20457;-71
2022/11/02 02:01:27;;;;;;;27.93;25.90;;;9.10;99.90;;;;;;4952173;28;20457;-73
2022/11/02 02:03:56;;;;;;;27.20;25.47;;;9.20;99.90;;;;;;4951532;28;20968;-71
2022/11/02 02:06:24;;;;;;;28.40;26.20;;;9.20;99.90;;;;;;4951715;28;20790;-71
2022/11/02 02:08:53;;;;;;;29.33;26.90;;;9.20;99.90;;;;;;4951851;28;20475;-71
2022/11/02 02:11:28;;;;;;;29.17;26.87;;;9.30;99.90;;;;;;4951515;28;20488;-71
2022/11/02 02:14:00;;;;;;;28.90;26.83;;;9.30;99.90;;;;;;4951455;28;20854;-71
2022/11/02 02:16:39;;;;;;;28.80;26.53;;;9.30;99.90;;;;;;4951762;28;20461;-71
2022/11/02 02:19:20;;;;;;;28.83;26.80;;;9.20;99.90;;;;;;4951610;28;20844;-74
2022/11/02 02:22:00;;;;;;;28.80;26.70;;;9.20;99.90;;;;;;4951706;28;20456;-74
2022/11/02 02:24:44;;;;;;;28.73;26.13;;;9.20;99.90;;;;;;4951493;28;20459;-74
2022/11/02 02:27:16;;;;;;;28.00;26.10;;;9.20;99.90;;;;;;4951500;28;20471;-74
2022/11/02 02:30:09;;;;;;;28.00;26.00;;;9.20;99.90;;;;;;4951468;28;20563;-73
2022/11/02 02:32:44;;;;;;;29.10;26.80;;;9.20;99.90;;;;;;4937219;28;20825;-73
2022/11/02 02:35:18;;;;;;;29.80;27.70;;;9.10;99.90;;;;;;4951435;28;20480;-73
2022/11/02 02:37:54;;;;;;;27.27;25.30;;;9.10;99.90;;;;;;4951319;28;20470;-73
2022/11/02 02:40:25;;;;;;;28.70;26.73;;;9.10;99.90;;;;;;4951262;28;20452;-73
2022/11/02 02:42:57;;;;;;;27.30;25.40;;;9.10;99.90;;;;;;4951204;28;20911;-73
2022/11/02 02:45:31;;;;;;;26.47;24.70;;;9.10;99.90;;;;;;4951075;28;20827;-71
2022/11/02 02:48:03;;;;;;;26.43;24.73;;;9.10;99.90;;;;;;4951210;28;20484;-72
2022/11/02 02:50:33;;;;;;;26.63;24.80;;;9.10;99.90;;;;;;4951200;28;20487;-72
2022/11/02 02:53:03;;;;;;;27.33;25.03;;;9.10;99.90;;;;;;4951006;28;20448;-71
2022/11/02 02:55:34;;;;;;;27.00;25.10;;;9.10;99.90;;;;;;4950802;29;20487;-72
2022/11/02 02:58:02;;;;;;;26.43;24.60;;;9.10;99.90;;;;;;4951133;28;20810;-71
2022/11/02 03:00:33;;;;;;;26.63;24.80;;;9.10;99.90;;;;;;4950983;28;20452;-71
2022/11/02 03:03:02;;;;;;;27.13;25.03;;;9.10;99.90;;;;;;4950936;28;20449;-71
2022/11/02 03:05:31;;;;;;;29.57;27.60;;;9.00;99.90;;;;;;4951134;28;20456;-74
2022/11/02 03:08:01;;;;;;;26.63;24.87;;;9.00;99.90;;;;;;4951430;28;20453;-73
2022/11/02 03:10:33;;;;;;;25.87;23.27;;;9.00;99.90;;;;;;4951442;28;20456;-73
2022/11/02 03:13:11;;;;;;;25.10;23.40;;;9.00;99.90;;;;;;4951238;28;20453;-73
2022/11/02 03:15:42;;;;;;;23.80;22.10;;;9.00;99.90;;;;;;4951045;28;20492;-73
2022/11/02 03:18:17;;;;;;;24.30;22.60;;;9.00;99.90;;;;;;4954483;28;20472;-71
2022/11/02 03:20:57;;;;;;;24.00;22.40;;;9.00;99.90;;;;;;4955012;28;20479;-74
2022/11/02 03:23:30;;;;;;;25.03;23.00;;;9.00;99.90;;;;;;4954645;28;20464;-73
2022/11/02 03:26:04;;;;;;;24.00;22.00;;;9.00;99.90;;;;;;4955021;28;20451;-73
2022/11/02 03:28:47;;;;;;;23.73;21.50;;;9.00;99.90;;;;;;4954746;28;20463;-73
2022/11/02 03:31:23;;;;;;;22.83;21.10;;;8.90;99.90;;;;;;4955109;28;20829;-73
2022/11/02 03:33:56;;;;;;;23.37;21.67;;;9.00;99.90;;;;;;4954258;28;20452;-73
2022/11/02 03:36:29;;;;;;;22.37;20.27;;;8.90;99.90;;;;;;4954622;28;20479;-74
2022/11/02 03:39:00;;;;;;;20.90;19.70;;;8.90;99.90;;;;;;4954849;28;20441;-71
2022/11/02 03:41:30;;;;;;;21.93;20.27;;;9.00;99.90;;;;;;4954803;28;20954;-72
2022/11/02 03:44:04;;;;;;;23.07;21.37;;;8.90;99.90;;;;;;4954834;28;20472;-72
2022/11/02 03:46:35;;;;;;;24.00;21.87;;;8.90;99.90;;;;;;4954467;28;20560;-72
2022/11/02 03:49:05;;;;;;;23.23;21.50;;;8.90;99.90;;;;;;4954304;28;20444;-72
2022/11/02 03:51:34;;;;;;;23.20;21.53;;;8.90;99.90;;;;;;4954158;28;20995;-72
2022/11/02 03:54:07;;;;;;;23.33;21.60;;;9.00;99.90;;;;;;4954200;28;20452;-72
2022/11/02 03:56:36;;;;;;;21.90;20.40;;;9.10;99.90;;;;;;4953913;29;20459;-72
2022/11/02 03:59:03;;;;;;;21.77;20.17;;;9.10;99.90;;;;;;4953892;28;20603;-73
2022/11/02 04:01:37;;;;;;;22.87;21.33;;;9.10;99.90;;;;;;4954341;28;20511;-72
2022/11/02 04:04:05;;;;;;;21.70;20.13;;;9.10;99.90;;;;;;4954378;28;20444;-71
2022/11/02 04:06:32;;;;;;;23.27;21.77;;;9.20;99.90;;;;;;4953817;28;20452;-73
2022/11/02 04:08:59;;;;;;;23.80;21.70;;;9.20;99.90;;;;;;4954207;28;20452;-72
2022/11/02 04:19:38;;;;;;;22.47;20.73;;;9.20;99.90;;;;;;4953056;28;20445;-72
2022/11/02 04:27:33;;;;;;;24.13;22.30;;;9.20;99.90;;;;;;4953223;28;20575;-72
2022/11/02 04:30:00;;;;;;;22.10;20.60;;;9.20;99.90;;;;;;4953486;28;20448;-72
2022/11/02 04:35:12;;;;;;;21.97;20.33;;;9.20;99.90;;;;;;4953910;28;20895;-72
2022/11/02 04:40:24;;;;;;;22.13;20.63;;;9.20;99.90;;;;;;4953663;28;20431;-72
2022/11/02 04:42:51;;;;;;;22.20;20.80;;;9.20;99.90;;;;;;4953025;29;20441;-72
2022/11/02 04:45:18;;;;;;;23.90;21.90;;;9.10;99.90;;;;;;4953289;29;20468;-71
2022/11/02 04:47:46;;;;;;;23.80;22.10;;;9.10;99.90;;;;;;4953364;29;20476;-72
2022/11/02 04:50:13;;;;;;;22.13;20.07;;;9.10;99.90;;;;;;4954385;29;20460;-72
2022/11/02 04:52:40;;;;;;;22.70;21.00;;;9.10;99.90;;;;;;4953848;29;20451;-73
2022/11/02 04:55:08;;;;;;;21.97;20.50;;;9.00;99.90;;;;;;4953840;29;20836;-72
2022/11/02 04:57:34;;;;;;;22.93;20.93;;;9.00;99.90;;;;;;4953575;29;20657;-72
2022/11/02 05:00:01;;;;;;;24.30;22.23;;;9.00;99.90;;;;;;4953379;29;20459;-71
2022/11/02 05:02:28;;;;;;;23.30;21.60;;;9.10;99.90;;;;;;4953649;29;20459;-71
2022/11/02 05:04:56;;;;;;;23.30;21.50;;;9.10;99.90;;;;;;4953471;29;20451;-71
2022/11/02 05:07:23;;;;;;;21.20;19.80;;;9.00;99.90;;;;;;4953328;29;20449;-70
2022/11/02 05:09:49;;;;;;;21.90;20.50;;;9.10;99.90;;;;;;4953274;29;20459;-70
2022/11/02 05:12:16;;;;;;;22.57;21.00;;;9.10;99.90;;;;;;4953198;29;20448;-71
2022/11/02 05:14:43;;;;;;;22.40;20.67;;;9.00;99.90;;;;;;4953333;29;20484;-70
2022/11/02 05:17:12;;;;;;;21.70;20.10;;;9.00;99.90;;;;;;4953165;29;20457;-70
2022/11/02 05:19:38;;;;;;;22.67;21.03;;;9.00;99.90;;;;;;4953110;29;20468;-71
2022/11/02 05:22:07;;;;;;;21.20;19.60;;;9.00;99.90;;;;;;4952964;29;20556;-70
2022/11/02 05:24:33;;;;;;;21.03;19.67;;;9.00;99.90;;;;;;4952978;29;20478;-71
2022/11/02 05:27:00;;;;;;;21.40;19.93;;;9.00;99.90;;;;;;4952968;29;20461;-71
2022/11/02 05:29:27;;;;;;;23.90;21.97;;;9.00;99.90;;;;;;4953073;29;20503;-72
2022/11/02 05:31:54;;;;;;;23.70;21.60;;;9.00;99.90;;;;;;4952882;29;20476;-72
2022/11/02 05:34:21;;;;;;;21.90;20.40;;;9.00;99.90;;;;;;4952774;29;20749;-70
2022/11/02 05:36:48;;;;;;;26.83;20.97;;;9.00;99.90;;;;;;4952799;29;20444;-71
2022/11/02 05:39:16;;;;;;;24.00;22.30;;;9.00;99.90;;;;;;4952377;28;20540;-72
2022/11/02 05:41:42;;;;;;;23.87;22.00;;;9.00;99.90;;;;;;4952792;29;20460;-72
2022/11/02 05:44:09;;;;;;;22.90;20.80;;;9.00;99.90;;;;;;4952635;29;20563;-71
2022/11/02 05:46:36;;;;;;;21.27;19.77;;;9.00;99.90;;;;;;4952431;29;20492;-71
2022/11/02 05:49:03;;;;;;;21.57;20.17;;;9.00;99.90;;;;;;4952512;29;20792;-70
2022/11/02 05:51:30;;;;;;;22.73;21.13;;;9.00;99.90;;;;;;4952545;29;20449;-72
2022/11/02 05:53:56;;;;;;;23.90;21.80;;;9.00;99.90;;;;;;4952786;29;20454;-72
2022/11/02 05:56:25;;;;;;;24.13;22.27;;;8.90;99.90;;;;;;4952309;29;20481;-73
2022/11/02 05:58:55;;;;;;;24.73;22.90;;;8.90;99.90;;;;;;4950692;29;20468;-71
2022/11/02 06:01:21;;;;;;;27.37;24.40;;;8.90;99.90;;;;;;4952149;29;20449;-71
2022/11/02 06:03:48;;;;;;;26.80;24.10;;;8.90;99.90;;;;;;4951225;29;20456;-72
2022/11/02 06:06:15;;;;;;;23.97;22.10;;;8.90;99.90;;;;;;4952304;29;20475;-72
2022/11/02 06:08:42;;;;;;;26.57;23.30;;;9.00;99.90;;;;;;4952580;29;20448;-73
2022/11/02 06:11:11;;;;;;;26.10;23.60;;;9.00;99.90;;;;;;4952160;29;20546;-73
2022/11/02 06:13:39;;;;;;;25.33;23.43;;;9.00;99.90;;;;;;4953289;29;20552;-70
2022/11/02 06:16:08;;;;;;;26.13;23.60;;;9.00;99.90;;;;;;4951816;29;20491;-70
2022/11/02 06:18:35;;;;;;;26.83;24.40;;;9.00;99.90;;;;;;4951935;29;20970;-72
2022/11/02 06:21:02;;;;;;;24.43;22.67;;;9.00;99.90;;;;;;4951897;29;20456;-73
2022/11/02 06:23:30;;;;;;;24.50;22.87;;;9.00;99.90;;;;;;4952323;29;20456;-71
2022/11/02 06:25:58;;;;;;;25.90;23.50;;;9.00;99.90;;;;;;4952305;29;21006;-71
2022/11/02 06:28:25;;;;;;;26.83;24.70;;;9.00;99.90;;;;;;4952271;29;20969;-72
2022/11/02 06:30:54;;;;;;;26.70;24.33;;;9.10;99.90;;;;;;4952019;29;20453;-73
2022/11/02 06:33:21;;;;;;;23.50;21.70;;;9.20;99.90;;;;;;4952001;29;20455;-71
2022/11/02 06:35:49;;;;;;;25.43;23.37;;;9.20;99.90;;;;;;4951690;29;20488;-72
2022/11/02 06:38:17;;;;;;;23.83;22.13;;;;;;;;;;4951759;29;20448;-74
2022/11/02 06:40:52;;;;;;;22.70;20.53;;;9.30;99.90;;;;;;4951745;29;20460;-73
2022/11/02 06:43:19;;;;;;;23.00;20.70;;;9.40;99.90;;;;;;4951738;29;20451;-73
2022/11/02 06:45:46;;;;;;;23.97;22.10;;;9.40;99.90;;;;;;4951693;29;20448;-71
2022/11/02 06:48:14;;;;;;;26.53;23.93;;;9.50;99.90;;;;;;4951806;29;20479;-73
2022/11/02 06:50:41;;;;;;;22.87;21.00;;;9.60;99.90;;;;;;4952035;28;20820;-73
2022/11/02 06:53:08;;;;;;;24.97;22.80;;;9.70;99.90;;;;;;4955149;29;21119;-73
2022/11/02 06:55:35;;;;;;;24.07;22.03;;;9.80;99.90;;;;;;4955411;29;20484;-73
2022/11/02 06:58:01;;;;;;;28.83;23.50;;;9.90;99.90;;;;;;4955683;29;20452;-73
2022/11/02 07:00:28;;;;;;;24.63;22.73;;;10.20;99.90;;;;;;4955345;29;20452;-73
2022/11/02 07:03:03;;;;;;;23.60;21.40;;;10.40;99.90;;;;;;4955685;29;20476;-74
2022/11/02 07:05:31;;;;;;;20.40;19.23;;;10.70;99.90;;;;;;4955471;29;20451;-73
2022/11/02 07:07:58;;;;;;;21.13;19.23;;;10.90;99.90;;;;;;4955500;29;20459;-73
2022/11/02 07:10:26;;;;;;;22.20;19.97;;;11.00;99.90;;;;;;4955498;29;20973;-73
2022/11/02 07:12:54;;;;;;;19.47;17.93;;;11.00;99.90;;;;;;4955491;29;20460;-72
2022/11/02 07:15:20;;;;;;;21.60;19.87;;;11.00;99.90;;;;;;4955147;29;20488;-72
2022/11/02 07:17:47;;;;;;;20.80;18.87;;;11.00;99.90;;;;;;4955110;29;20452;-73
2022/11/02 07:20:14;;;;;;;19.87;18.30;;;11.00;99.90;;;;;;4955103;29;20452;-73
2022/11/02 07:22:42;;;;;;;18.50;17.10;;;11.10;99.90;;;;;;4955323;29;20938;-71
2022/11/02 07:25:09;;;;;;;25.87;18.67;;;11.20;99.90;;;;;;4955057;29;20453;-72
2022/11/02 07:27:39;;;;;;;17.70;16.30;;;11.20;99.90;;;;;;4954975;29;20454;-73
2022/11/02 07:30:07;;;;;;;18.03;16.30;;;11.30;99.90;;;;;;4954737;29;20570;-73
2022/11/02 07:32:40;;;;;;;17.20;16.00;;;11.60;99.90;;;;;;4951453;29;20460;-72
2022/11/02 07:35:08;;;;;;;16.87;15.67;;;11.80;99.90;;;;;;4954975;29;20484;-72
2022/11/02 07:37:35;;;;;;;16.13;14.63;;;12.00;99.90;;;;;;4954809;29;20994;-74
2022/11/02 07:40:05;;;;;;;15.40;14.30;;;12.40;99.90;;;;;;4954524;28;20448;-73
2022/11/02 07:42:32;;;;;;;16.30;15.17;;;12.80;99.90;;;;;;4954659;28;20943;-72
2022/11/02 07:44:58;;;;;;;16.10;14.90;;;13.10;99.90;;;;;;4954466;28;20475;-72
2022/11/02 07:47:25;;;;;;;14.17;13.17;;;13.30;99.90;;;;;;4954680;28;20483;-71
2022/11/02 07:49:52;;;;;;;15.40;13.50;;;13.70;99.90;;;;;;4954540;28;20452;-72
2022/11/02 07:52:19;;;;;;;23.00;13.67;;;14.00;99.90;;;;;;4954493;28;20881;-73
2022/11/02 07:54:46;;;;;;;13.03;12.03;;;14.00;99.90;;;;;;4954554;28;20464;-74
2022/11/02 07:57:14;;;;;;;12.67;11.87;;;14.00;99.90;;;;;;4954492;28;20488;-73
2022/11/02 07:59:40;;;;;;;15.03;13.50;;;14.00;99.90;;;;;;4954563;28;20460;-73
2022/11/02 08:02:12;;;;;;;15.00;13.73;;;14.00;99.90;;;;;;4953694;28;20456;-73
2022/11/02 08:04:39;;;;;;;16.03;14.47;;;14.20;99.90;;;;;;4954359;28;20457;-73
2022/11/02 08:07:06;;;;;;;14.30;12.90;;;14.20;99.90;;;;;;4954170;28;20444;-71
2022/11/02 08:09:32;;;;;;;21.40;13.50;;;14.30;99.90;;;;;;4954233;28;20452;-72
2022/11/02 08:11:59;;;;;;;15.80;13.83;;;14.70;99.90;;;;;;4954257;28;20480;-71
2022/11/02 08:14:27;;;;;;;25.47;15.43;;;14.90;99.90;;;;;;4954397;28;20449;-73
2022/11/02 08:17:21;;;;;;;17.87;16.27;;;15.20;99.90;;;;;;4953972;28;20492;-74
2022/11/02 08:19:48;;;;;;;18.00;16.70;;;15.20;99.90;;;;;;4948824;28;20471;-73
2022/11/02 08:22:15;;;;;;;18.33;16.10;;;15.00;99.90;;;;;;4953176;28;20449;-72
2022/11/02 08:24:41;;;;;;;16.93;15.63;;;14.90;99.90;;;;;;4954435;28;20449;-73
2022/11/02 08:27:08;;;;;;;17.97;16.20;;;14.90;99.90;;;;;;4953866;28;20532;-73
2022/11/02 08:29:36;;;;;;;18.90;17.30;;;14.90;99.90;;;;;;4954067;28;20496;-73
2022/11/02 08:32:03;;;;;;;16.37;15.07;;;15.20;99.90;;;;;;4952156;28;20455;-73
2022/11/02 08:34:30;;;;;;;15.80;14.50;;;15.70;99.90;;;;;;4953583;28;20456;-73
2022/11/02 08:36:57;;;;;;;16.50;15.13;;;15.90;99.90;;;;;;4952816;28;20488;-73
2022/11/02 08:39:24;;;;;;;15.40;14.30;;;16.20;99.90;;;;;;4953485;28;20483;-74
2022/11/02 08:41:51;;;;;;;15.50;14.30;;;16.30;99.90;;;;;;4953614;28;20453;-74
2022/11/02 08:44:17;;;;;;;14.70;13.43;;;16.70;99.90;;;;;;4953394;28;20487;-73
2022/11/02 08:46:45;;;;;;;14.77;13.50;;;16.70;99.90;;;;;;4953486;28;20476;-73
2022/11/02 08:49:12;;;;;;;16.30;13.37;;;16.70;99.90;;;;;;4953558;28;20459;-73
2022/11/02 08:51:39;;;;;;;12.97;12.03;;;17.00;99.90;;;;;;4953325;28;20818;-74
2022/11/02 08:54:06;;;;;;;14.00;12.77;;;17.10;99.90;;;;;;4953218;28;20445;-74
2022/11/02 08:56:32;;;;;;;13.93;12.70;;;17.30;99.90;;;;;;4953066;28;20485;-74
2022/11/02 08:58:59;;;;;;;13.33;12.50;;;17.30;99.90;;;;;;4953422;28;20476;-73
2022/11/02 09:01:26;;;;;;;13.70;12.70;;;17.20;99.90;;;;;;4953360;28;20458;-73
2022/11/02 09:03:54;;;;;;;14.40;13.23;;;17.10;99.90;;;;;;4953035;28;20453;-74
2022/11/02 09:06:21;;;;;;;13.17;11.97;;;17.40;99.90;;;;;;4952891;28;20548;-74
2022/11/02 09:08:48;;;;;;;12.87;11.87;;;17.50;99.90;;;;;;4952753;28;20459;-73
2022/11/02 09:11:15;;;;;;;13.80;12.90;;;17.40;99.90;;;;;;4952925;28;20452;-71
2022/11/02 09:13:42;;;;;;;14.93;13.60;;;17.50;99.90;;;;;;4952593;28;20515;-72
2022/11/02 09:16:09;;;;;;;13.20;12.30;;;17.60;99.90;;;;;;4952596;28;20485;-73
2022/11/02 09:18:36;;;;;;;16.47;13.80;;;17.30;99.90;;;;;;4952630;28;20445;-74
2022/11/02 09:21:05;;;;;;;14.17;12.97;;;17.10;99.90;;;;;;4952700;28;20448;-72
2022/11/02 09:23:32;;;;;;;14.80;13.43;;;17.20;99.90;;;;;;4952679;28;20479;-73
2022/11/02 09:25:59;;;;;;;14.70;13.33;;;17.10;99.90;;;;;;4952726;28;20467;-75
2022/11/02 09:28:26;;;;;;;15.63;14.20;;;17.00;99.90;;;;;;4951247;28;20460;-73
2022/11/02 09:30:53;;;;;;;15.30;13.93;;;17.30;99.90;;;;;;4952538;28;20445;-74
2022/11/02 09:33:20;;;;;;;16.13;14.83;;;17.30;99.90;;;;;;4952642;28;20549;-72
2022/11/02 09:35:49;;;;;;;16.00;14.50;;;17.30;99.90;;;;;;4952311;28;20488;-73
2022/11/02 09:38:18;;;;;;;20.40;13.70;;;17.40;99.90;;;;;;4952647;28;20811;-72
2022/11/02 09:40:47;;;;;;;12.77;12.03;;;17.50;99.90;;;;;;4952627;28;20460;-73
2022/11/02 09:43:24;;;;;;;12.77;12.17;;;17.60;99.90;;;;;;4952665;28;20479;-74
2022/11/02 09:45:58;;;;;;;13.27;12.27;;;17.80;99.90;;;;;;4952313;28;20459;-73
2022/11/02 09:48:28;;;;;;;13.03;11.93;;;18.10;99.90;;;;;;4952368;28;20449;-73
2022/11/02 09:51:01;;;;;;;12.83;11.93;;;18.40;99.90;;;;;;4952255;28;20532;-74
2022/11/02 09:53:39;;;;;;;12.70;11.30;;;18.80;99.90;;;;;;4952782;28;20847;-74
2022/11/02 09:56:08;;;;;;;11.30;10.73;;;18.90;99.90;;;;;;4950759;28;20491;-73
2022/11/02 09:58:39;;;;;;;12.17;11.10;;;18.70;99.90;;;;;;4952163;28;20537;-73
2022/11/02 10:01:18;;;;;;;12.17;11.37;;;18.50;99.90;;;;;;4952111;28;20451;-73
2022/11/02 10:03:59;;;;;;;10.63;9.90;;;19.30;99.90;;;;;;4952133;28;20445;-73
2022/11/02 10:06:29;;;;;;;10.70;9.80;;;18.80;99.90;;;;;;4952354;28;20963;-72
2022/11/02 10:09:03;;;;;;;11.27;10.60;;;18.90;99.90;;;;;;4951965;28;20943;-72
2022/11/02 10:11:40;;;;;;;11.40;10.60;;;19.10;99.90;;;;;;4951916;28;20454;-73
2022/11/02 10:14:12;;;;;;;11.43;10.70;;;18.90;99.90;;;;;;4951929;28;20459;-73
2022/11/02 10:16:48;;;;;;;11.80;11.00;;;18.90;99.90;;;;;;4951792;28;20518;-73
2022/11/02 10:19:18;;;;;;;11.77;10.80;;;18.60;99.90;;;;;;4951907;28;20539;-73
2022/11/02 10:21:48;;;;;;;11.03;9.93;;;18.50;99.90;;;;;;4951749;28;20449;-73
2022/11/02 10:24:23;;;;;;;11.90;10.90;;;18.60;99.90;;;;;;4951874;28;20457;-73
2022/11/02 10:26:50;;;;;;;11.57;10.60;;;18.60;99.90;;;;;;4951157;28;20440;-72
2022/11/02 10:29:20;;;;;;;11.40;10.90;;;18.60;99.90;;;;;;4951430;28;20448;-73
2022/11/02 10:31:47;;;;;;;11.30;10.57;;;18.40;99.90;;;;;;4951430;28;20939;-72
2022/11/02 10:34:22;;;;;;;11.63;10.97;;;18.30;99.90;;;;;;4951830;28;20452;-73
2022/11/02 10:37:00;;;;;;;11.23;10.40;;;18.30;99.90;;;;;;4951500;28;20484;-72
2022/11/02 10:39:37;;;;;;;11.87;10.73;;;18.40;99.90;;;;;;4951792;28;20830;-73
2022/11/02 10:42:18;;;;;;;11.23;10.53;;;18.40;99.30;;;;;;4951417;28;21081;-74
2022/11/02 10:45:03;;;;;;;11.10;10.40;;;18.30;99.60;;;;;;4951544;28;20882;-72
2022/11/02 10:47:34;;;;;;;11.73;10.90;;;18.50;98.90;;;;;;4951455;28;20837;-73
2022/11/02 10:50:23;;;;;;;10.97;10.47;;;18.70;99.30;;;;;;4951308;28;20456;-73
2022/11/02 10:52:50;;;;;;;11.33;10.63;;;19.00;98.20;;;;;;4950779;29;20460;-73
2022/11/02 10:55:25;;;;;;;12.10;11.03;;;19.00;97.80;;;;;;4950773;28;20453;-73
2022/11/02 10:57:55;;;;;;;12.43;11.40;;;19.00;97.60;;;;;;4949043;28;20541;-74
2022/11/02 11:00:31;;;;;;;11.93;11.03;;;19.10;97.30;;;;;;4950756;28;20452;-73
2022/11/02 11:03:10;;;;;;;12.10;11.00;;;19.00;97.10;;;;;;4950734;28;20448;-73
2022/11/02 11:05:43;;;;;;;10.73;10.20;;;18.70;97.50;;;;;;4949989;28;20787;-73
2022/11/02 11:08:30;;;;;;;11.00;10.37;;;18.70;97.90;;;;;;4951204;28;20946;-73
2022/11/02 11:11:15;;;;;;;11.30;10.70;;;18.80;98.10;;;;;;4950772;28;20449;-73
2022/11/02 11:13:44;;;;;;;12.03;11.03;;;18.80;97.50;;;;;;4950925;28;20547;-74
2022/11/02 11:16:12;;;;;;;14.13;10.07;;;18.90;97.40;;;;;;4950939;28;20873;-73
2022/11/02 11:18:40;;;;;;;11.57;10.67;;;18.80;97.60;;;;;;4950644;28;20465;-72
2022/11/02 11:21:07;;;;;;;11.90;11.20;;;19.00;97.40;;;;;;4950513;28;20459;-73
2022/11/02 11:23:34;;;;;;;11.20;10.30;;;18.70;97.40;;;;;;4950575;28;20452;-73
2022/11/02 11:26:02;;;;;;;12.50;11.60;;;18.70;97.20;;;;;;4949835;28;20452;-73
2022/11/02 11:28:33;;;;;;;11.87;10.97;;;18.60;97.20;;;;;;4950047;28;20460;-73
2022/11/02 11:31:06;;;;;;;12.10;11.30;;;18.60;97.50;;;;;;4950823;29;20456;-73
2022/11/02 11:33:40;;;;;;;11.63;10.77;;;18.50;97.40;;;;;;4950365;28;20966;-73
2022/11/02 11:36:09;;;;;;;11.83;11.10;;;18.70;97.10;;;;;;4950487;28;20756;-74
2022/11/02 11:38:36;;;;;;;11.90;11.13;;;18.90;96.90;;;;;;4954792;28;20695;-73
2022/11/02 11:41:04;;;;;;;13.37;12.17;;;19.10;96.50;;;;;;4952151;28;20449;-72
2022/11/02 11:43:37;;;;;;;12.10;11.40;;;19.40;96.50;;;;;;4953746;28;20469;-70
2022/11/02 11:46:07;;;;;;;12.77;11.80;;;20.00;95.30;;;;;;4953480;28;20475;-71
2022/11/02 11:48:38;;;;;;;12.70;12.00;;;20.90;94.30;;;;;;4953718;28;20445;-70
2022/11/02 11:51:17;;;;;;;11.93;11.00;;;22.00;92.30;;;;;;4953569;28;20616;-71
2022/11/02 11:54:05;;;;;;;12.43;11.70;;;23.80;88.00;;;;;;4953654;28;20862;-71
2022/11/02 11:56:32;;;;;;;14.40;13.27;;;25.70;78.90;;;;;;4953913;28;20487;-73
2022/11/02 11:59:00;;;;;;;11.90;11.23;;;26.60;73.90;;;;;;4953267;28;20709;-73
2022/11/02 12:01:27;;;;;;;13.40;12.77;;;27.50;70.90;;;;;;4951799;28;20449;-72
2022/11/02 12:03:56;;;;;;;14.00;12.90;;;27.10;68.60;;;;;;4951616;28;20452;-72
2022/11/02 12:06:30;;;;;;;13.50;12.60;;;26.40;69.80;;;;;;4953429;28;20816;-74
2022/11/02 12:09:03;;;;;;;12.53;11.83;;;25.60;71.30;;;;;;4954065;28;20458;-73
2022/11/02 12:11:46;;;;;;;13.70;12.57;;;24.70;73.70;;;;;;4953434;28;20514;-74
2022/11/02 12:14:30;;;;;;;12.87;11.80;;;25.20;72.00;;;;;;4953898;28;21046;-75
2022/11/02 12:17:20;;;;;;;12.83;12.03;;;25.40;70.80;;;;;;4953862;28;20491;-74
2022/11/02 12:20:05;;;;;;;13.70;13.00;;;24.10;73.00;;;;;;4951021;28;20902;-74
2022/11/02 12:22:41;;;;;;;13.03;12.10;;;22.70;76.60;;;;;;4953314;28;20460;-74
2022/11/02 12:25:37;;;;;;;12.33;11.60;;;21.70;78.40;;;;;;4953125;28;20542;-73
2022/11/02 12:28:19;;;;;;;13.40;12.60;;;21.30;80.10;;;;;;4952232;28;20831;-73
2022/11/02 12:30:59;;;;;;;12.80;11.90;;;20.60;82.10;;;;;;4953334;28;20448;-74
2022/11/02 12:33:40;;;;;;;10.77;10.17;;;19.60;83.50;;;;;;4953426;28;20946;-74
2022/11/02 12:36:16;;;;;;;12.03;11.33;;;19.80;85.70;;;;;;4953184;28;20536;-74
2022/11/02 12:39:02;;;;;;;12.50;11.90;;;20.90;82.60;;;;;;4953387;28;20451;-73
2022/11/02 12:41:50;;;;;;;12.60;11.80;;;23.20;76.40;;;;;;4953140;28;20488;-73
2022/11/02 12:44:30;;;;;;;14.13;13.33;;;24.10;71.00;;;;;;4952794;28;20511;-74
2022/11/02 12:47:07;;;;;;;12.47;11.90;;;25.00;67.50;;;;;;4952871;28;20492;-74
2022/11/02 12:49:41;;;;;;;14.07;13.27;;;25.80;65.00;;;;;;4952629;28;20664;-75
2022/11/02 12:52:21;;;;;;;13.90;13.00;;;25.40;64.50;;;;;;4952752;28;20449;-74
2022/11/02 12:54:51;;;;;;;11.80;11.20;;;25.10;65.90;;;;;;4952905;28;20448;-74
2022/11/02 12:57:22;;;;;;;12.50;11.90;;;24.80;64.70;;;;;;4952718;28;20492;-73
2022/11/02 12:59:53;;;;;;;11.93;11.33;;;23.10;68.10;;;;;;4952560;29;20449;-73
2022/11/02 13:02:26;;;;;;;12.50;11.63;;;21.50;71.00;;;;;;4953032;28;20623;-72
2022/11/02 13:04:59;;;;;;;12.80;12.00;;;20.80;74.50;;;;;;4952595;28;20802;-72
2022/11/02 13:07:31;;;;;;;11.33;10.83;;;20.20;75.90;;;;;;4950292;28;20460;-73